Terminal Aerodrome Forecast
Issued by NWS

Home | Current Version | Previous Version | Text Only | Print | Product List | Glossary Off
Versions: 1 2 3 4 5 6 7 8 9 10 11 12 13 14 15 16 17

000
FTUS43 KTOP 251628 AAA
TAFMHK
TAF AMD
KMHK 251628Z 2516/2612 15006KT P6SM SCT060 BKN250
      TEMPO 2516/2517 35012G22KT
     FM260000 18008KT P6SM SCT050 BKN120
     FM260300 14006KT P6SM VCTS SCT050 BKN080CB=

USA.gov is the U.S. government's official web portal to all federal, state and local government web resources and services.